sensor_id;sensor_type;location;lat;lon;timestamp;pressure;altitude;pressure_sealevel;temperature;humidity
28456;BME280;15682;56.742;38.866;2023-12-14T00:01:30;100260.0;;;-11.9;90.7
28456;BME280;15682;56.742;38.866;2023-12-14T00:03:30;100260.0;;;-12.0;90.7
28456;BME280;15682;56.742;38.866;2023-12-14T00:05:29;100260.0;;;-12.0;90.7
28456;BME280;15682;56.742;38.866;2023-12-14T00:07:29;100260.0;;;-12.0;90.8
28456;BME280;15682;56.742;38.866;2023-12-14T00:09:29;100260.0;;;-12.0;90.8
28456;BME280;15682;56.742;38.866;2023-12-14T00:11:29;100260.0;;;-12.0;90.8
28456;BME280;15682;56.742;38.866;2023-12-14T00:13:28;100260.0;;;-12.0;90.8
28456;BME280;15682;56.742;38.866;2023-12-14T00:15:28;100260.0;;;-12.0;90.8
28456;BME280;15682;56.742;38.866;2023-12-14T00:17:27;100260.0;;;-12.0;90.7
28456;BME280;15682;56.742;38.866;2023-12-14T00:19:27;100260.0;;;-12.0;90.7
28456;BME280;15682;56.742;38.866;2023-12-14T00:21:27;100260.0;;;-12.0;90.1
28456;BME280;15682;56.742;38.866;2023-12-14T00:23:26;100260.0;;;-12.0;90.7
28456;BME280;15682;56.742;38.866;2023-12-14T00:25:26;100260.0;;;-11.8;91.9
28456;BME280;15682;56.742;38.866;2023-12-14T00:27:26;100260.0;;;-11.8;90.7
28456;BME280;15682;56.742;38.866;2023-12-14T00:29:25;100260.0;;;-12.0;90.7
28456;BME280;15682;56.742;38.866;2023-12-14T00:31:25;100270.0;;;-12.0;90.7
28456;BME280;15682;56.742;38.866;2023-12-14T00:33:25;100270.0;;;-12.0;91.3
28456;BME280;15682;56.742;38.866;2023-12-14T00:35:25;100270.0;;;-11.9;90.3
28456;BME280;15682;56.742;38.866;2023-12-14T00:37:24;100270.0;;;-11.9;90.3
28456;BME280;15682;56.742;38.866;2023-12-14T00:39:24;100270.0;;;-11.9;90.3
28456;BME280;15682;56.742;38.866;2023-12-14T00:41:23;100270.0;;;-11.9;90.3
28456;BME280;15682;56.742;38.866;2023-12-14T00:43:23;100270.0;;;-11.8;90.9
28456;BME280;15682;56.742;38.866;2023-12-14T00:45:23;100270.0;;;-11.8;90.9
28456;BME280;15682;56.742;38.866;2023-12-14T00:47:22;100270.0;;;-11.8;90.4
28456;BME280;15682;56.742;38.866;2023-12-14T00:49:22;100270.0;;;-11.8;90.4
28456;BME280;15682;56.742;38.866;2023-12-14T00:51:22;100270.0;;;-11.8;90.4
28456;BME280;15682;56.742;38.866;2023-12-14T00:53:21;100270.0;;;-11.9;90.4
28456;BME280;15682;56.742;38.866;2023-12-14T00:55:21;100270.0;;;-11.9;90.4
28456;BME280;15682;56.742;38.866;2023-12-14T00:57:21;100270.0;;;-11.8;90.2
28456;BME280;15682;56.742;38.866;2023-12-14T00:59:20;100270.0;;;-11.8;90.2
28456;BME280;15682;56.742;38.866;2023-12-14T01:01:20;100270.0;;;-11.9;90.2
28456;BME280;15682;56.742;38.866;2023-12-14T01:03:20;100270.0;;;-11.9;90.2
28456;BME280;15682;56.742;38.866;2023-12-14T01:05:19;100270.0;;;-11.8;90.2
28456;BME280;15682;56.742;38.866;2023-12-14T01:07:19;100270.0;;;-11.8;90.2
28456;BME280;15682;56.742;38.866;2023-12-14T01:09:19;100270.0;;;-11.8;90.2
28456;BME280;15682;56.742;38.866;2023-12-14T01:11:18;100270.0;;;-11.8;90.2
28456;BME280;15682;56.742;38.866;2023-12-14T01:13:18;100270.0;;;-11.8;90.2
28456;BME280;15682;56.742;38.866;2023-12-14T01:15:18;100270.0;;;-11.9;90.2
28456;BME280;15682;56.742;38.866;2023-12-14T01:17:17;100270.0;;;-11.9;90.5
28456;BME280;15682;56.742;38.866;2023-12-14T01:19:17;100270.0;;;-11.9;90.5
28456;BME280;15682;56.742;38.866;2023-12-14T01:21:17;100270.0;;;-11.9;90.5
28456;BME280;15682;56.742;38.866;2023-12-14T01:23:16;100270.0;;;-11.9;90.5
28456;BME280;15682;56.742;38.866;2023-12-14T01:25:17;100270.0;;;-11.9;90.5
28456;BME280;15682;56.742;38.866;2023-12-14T01:27:16;100260.0;;;-11.8;91.0
28456;BME280;15682;56.742;38.866;2023-12-14T01:29:15;100260.0;;;-11.8;90.4
28456;BME280;15682;56.742;38.866;2023-12-14T01:31:15;100260.0;;;-11.9;91.1
28456;BME280;15682;56.742;38.866;2023-12-14T01:33:15;100260.0;;;-11.8;91.5
28456;BME280;15682;56.742;38.866;2023-12-14T01:35:15;100260.0;;;-11.8;91.5
28456;BME280;15682;56.742;38.866;2023-12-14T01:37:14;100260.0;;;-11.9;91.3
28456;BME280;15682;56.742;38.866;2023-12-14T01:39:14;100260.0;;;-11.9;91.3
28456;BME280;15682;56.742;38.866;2023-12-14T01:41:13;100260.0;;;-11.9;91.3
28456;BME280;15682;56.742;38.866;2023-12-14T01:43:13;100260.0;;;-11.9;91.3
28456;BME280;15682;56.742;38.866;2023-12-14T01:45:13;100250.0;;;-11.9;92.2
28456;BME280;15682;56.742;38.866;2023-12-14T01:47:12;100250.0;;;-11.9;92.1
28456;BME280;15682;56.742;38.866;2023-12-14T01:49:12;100250.0;;;-11.9;92.1
28456;BME280;15682;56.742;38.866;2023-12-14T01:51:12;100250.0;;;-11.9;92.1
28456;BME280;15682;56.742;38.866;2023-12-14T01:53:11;100250.0;;;-11.9;92.1
28456;BME280;15682;56.742;38.866;2023-12-14T01:55:11;100250.0;;;-11.8;92.1
28456;BME280;15682;56.742;38.866;2023-12-14T01:57:11;100250.0;;;-11.8;91.5
28456;BME280;15682;56.742;38.866;2023-12-14T01:59:10;100250.0;;;-11.8;91.5
28456;BME280;15682;56.742;38.866;2023-12-14T02:01:16;100250.0;;;-11.8;91.5
28456;BME280;15682;56.742;38.866;2023-12-14T02:03:10;100250.0;;;-11.8;91.5
28456;BME280;15682;56.742;38.866;2023-12-14T02:05:09;100250.0;;;-11.8;91.5
28456;BME280;15682;56.742;38.866;2023-12-14T02:07:09;100250.0;;;-11.8;90.6
28456;BME280;15682;56.742;38.866;2023-12-14T02:09:09;100250.0;;;-11.8;90.6
28456;BME280;15682;56.742;38.866;2023-12-14T02:11:08;100250.0;;;-11.6;90.6
28456;BME280;15682;56.742;38.866;2023-12-14T02:13:08;100250.0;;;-11.6;90.6
28456;BME280;15682;56.742;38.866;2023-12-14T02:15:09;100250.0;;;-11.7;90.6
28456;BME280;15682;56.742;38.866;2023-12-14T02:17:07;100250.0;;;-11.7;90.3
28456;BME280;15682;56.742;38.866;2023-12-14T02:19:07;100250.0;;;-11.7;90.3
28456;BME280;15682;56.742;38.866;2023-12-14T02:21:07;100250.0;;;-11.7;90.3
28456;BME280;15682;56.742;38.866;2023-12-14T02:23:07;100250.0;;;-11.7;90.3
28456;BME280;15682;56.742;38.866;2023-12-14T02:25:08;100250.0;;;-11.7;90.3
28456;BME280;15682;56.742;38.866;2023-12-14T02:27:06;100260.0;;;-11.7;90.8
28456;BME280;15682;56.742;38.866;2023-12-14T02:29:06;100270.0;;;-11.7;90.8
28456;BME280;15682;56.742;38.866;2023-12-14T02:31:05;100270.0;;;-11.7;90.8
28456;BME280;15682;56.742;38.866;2023-12-14T02:33:05;100270.0;;;-11.7;90.8
28456;BME280;15682;56.742;38.866;2023-12-14T02:35:06;100270.0;;;-11.8;90.8
28456;BME280;15682;56.742;38.866;2023-12-14T02:37:04;100270.0;;;-11.8;91.2
28456;BME280;15682;56.742;38.866;2023-12-14T02:39:04;100270.0;;;-11.8;91.2
28456;BME280;15682;56.742;38.866;2023-12-14T02:41:04;100270.0;;;-11.8;91.2
28456;BME280;15682;56.742;38.866;2023-12-14T02:43:03;100270.0;;;-11.8;91.2
28456;BME280;15682;56.742;38.866;2023-12-14T02:45:04;100270.0;;;-11.9;91.7
28456;BME280;15682;56.742;38.866;2023-12-14T02:47:03;100270.0;;;-11.9;92.7
28456;BME280;15682;56.742;38.866;2023-12-14T02:49:02;100270.0;;;-11.9;94.4
28456;BME280;15682;56.742;38.866;2023-12-14T02:51:02;100270.0;;;-11.9;94.4
28456;BME280;15682;56.742;38.866;2023-12-14T02:53:02;100270.0;;;-12.0;94.4
28456;BME280;15682;56.742;38.866;2023-12-14T02:55:02;100270.0;;;-12.0;94.4
28456;BME280;15682;56.742;38.866;2023-12-14T02:57:01;100270.0;;;-12.0;94.1
28456;BME280;15682;56.742;38.866;2023-12-14T02:59:01;100270.0;;;-12.0;94.1
28456;BME280;15682;56.742;38.866;2023-12-14T03:01:00;100270.0;;;-12.0;94.1
28456;BME280;15682;56.742;38.866;2023-12-14T03:03:00;100270.0;;;-12.0;93.7
28456;BME280;15682;56.742;38.866;2023-12-14T03:05:00;100270.0;;;-11.9;93.7
28456;BME280;15682;56.742;38.866;2023-12-14T03:07:00;100270.0;;;-11.9;93.2
28456;BME280;15682;56.742;38.866;2023-12-14T03:08:59;100270.0;;;-11.9;92.8
28456;BME280;15682;56.742;38.866;2023-12-14T03:10:59;100270.0;;;-11.9;93.4
28456;BME280;15682;56.742;38.866;2023-12-14T03:12:59;100270.0;;;-11.9;92.9
28456;BME280;15682;56.742;38.866;2023-12-14T03:14:58;100270.0;;;-11.9;92.9
28456;BME280;15682;56.742;38.866;2023-12-14T03:16:58;100270.0;;;-11.9;93.3
28456;BME280;15682;56.742;38.866;2023-12-14T03:18:57;100270.0;;;-11.9;93.5
28456;BME280;15682;56.742;38.866;2023-12-14T03:20:58;100270.0;;;-11.9;92.9
28456;BME280;15682;56.742;38.866;2023-12-14T03:22:57;100270.0;;;-11.9;92.9
28456;BME280;15682;56.742;38.866;2023-12-14T03:24:57;100260.0;;;-11.9;93.9
28456;BME280;15682;56.742;38.866;2023-12-14T03:26:56;100260.0;;;-11.7;92.9
28456;BME280;15682;56.742;38.866;2023-12-14T03:28:56;100260.0;;;-11.7;92.9
28456;BME280;15682;56.742;38.866;2023-12-14T03:30:56;100250.0;;;-11.8;92.6
28456;BME280;15682;56.742;38.866;2023-12-14T03:32:55;100250.0;;;-11.8;92.6
28456;BME280;15682;56.742;38.866;2023-12-14T03:34:55;100250.0;;;-11.8;92.6
28456;BME280;15682;56.742;38.866;2023-12-14T03:36:55;100250.0;;;-11.8;92.3
28456;BME280;15682;56.742;38.866;2023-12-14T03:38:54;100250.0;;;-11.8;91.9
28456;BME280;15682;56.742;38.866;2023-12-14T03:40:54;100250.0;;;-11.7;92.6
28456;BME280;15682;56.742;38.866;2023-12-14T03:42:54;100250.0;;;-11.7;92.6
28456;BME280;15682;56.742;38.866;2023-12-14T03:44:53;100250.0;;;-11.7;92.0
28456;BME280;15682;56.742;38.866;2023-12-14T03:46:53;100250.0;;;-11.7;92.2
28456;BME280;15682;56.742;38.866;2023-12-14T03:48:53;100250.0;;;-11.7;92.2
28456;BME280;15682;56.742;38.866;2023-12-14T03:50:52;100250.0;;;-11.7;92.2
28456;BME280;15682;56.742;38.866;2023-12-14T03:52:52;100250.0;;;-11.7;92.2
28456;BME280;15682;56.742;38.866;2023-12-14T03:54:52;100250.0;;;-11.7;92.2
28456;BME280;15682;56.742;38.866;2023-12-14T03:56:51;100250.0;;;-11.7;91.7
28456;BME280;15682;56.742;38.866;2023-12-14T03:58:51;100250.0;;;-11.7;91.7
28456;BME280;15682;56.742;38.866;2023-12-14T04:00:51;100250.0;;;-11.7;91.7
28456;BME280;15682;56.742;38.866;2023-12-14T04:02:51;100250.0;;;-11.7;91.7
28456;BME280;15682;56.742;38.866;2023-12-14T04:04:50;100250.0;;;-11.7;91.7
28456;BME280;15682;56.742;38.866;2023-12-14T04:06:50;100250.0;;;-11.7;92.0
28456;BME280;15682;56.742;38.866;2023-12-14T04:08:49;100250.0;;;-11.7;92.0
28456;BME280;15682;56.742;38.866;2023-12-14T04:10:49;100250.0;;;-11.7;91.5
28456;BME280;15682;56.742;38.866;2023-12-14T04:12:49;100250.0;;;-11.7;91.5
28456;BME280;15682;56.742;38.866;2023-12-14T04:14:48;100250.0;;;-11.7;91.5
28456;BME280;15682;56.742;38.866;2023-12-14T04:16:48;100250.0;;;-11.7;91.6
28456;BME280;15682;56.742;38.866;2023-12-14T04:18:48;100250.0;;;-11.7;92.1
28456;BME280;15682;56.742;38.866;2023-12-14T04:20:48;100250.0;;;-11.7;91.5
28456;BME280;15682;56.742;38.866;2023-12-14T04:22:47;100260.0;;;-11.7;91.5
28456;BME280;15682;56.742;38.866;2023-12-14T04:24:47;100260.0;;;-11.7;91.5
28456;BME280;15682;56.742;38.866;2023-12-14T04:26:46;100260.0;;;-11.7;91.6
28456;BME280;15682;56.742;38.866;2023-12-14T04:28:46;100260.0;;;-11.7;91.6
28456;BME280;15682;56.742;38.866;2023-12-14T04:30:46;100260.0;;;-11.7;91.6
28456;BME280;15682;56.742;38.866;2023-12-14T04:32:45;100260.0;;;-11.7;91.6
28456;BME280;15682;56.742;38.866;2023-12-14T04:34:45;100260.0;;;-11.7;91.6
28456;BME280;15682;56.742;38.866;2023-12-14T04:36:45;100260.0;;;-11.7;91.4
28456;BME280;15682;56.742;38.866;2023-12-14T04:38:45;100260.0;;;-11.7;91.4
28456;BME280;15682;56.742;38.866;2023-12-14T04:40:44;100260.0;;;-11.7;91.4
28456;BME280;15682;56.742;38.866;2023-12-14T04:42:44;100260.0;;;-11.7;91.4
28456;BME280;15682;56.742;38.866;2023-12-14T04:44:44;100260.0;;;-11.7;91.4
28456;BME280;15682;56.742;38.866;2023-12-14T04:46:43;100260.0;;;-11.7;91.4
28456;BME280;15682;56.742;38.866;2023-12-14T04:48:43;100270.0;;;-11.7;92.0
28456;BME280;15682;56.742;38.866;2023-12-14T04:50:43;100270.0;;;-11.5;91.4
28456;BME280;15682;56.742;38.866;2023-12-14T04:52:42;100270.0;;;-11.5;91.4
28456;BME280;15682;56.742;38.866;2023-12-14T04:54:42;100270.0;;;-11.5;91.4
28456;BME280;15682;56.742;38.866;2023-12-14T04:56:42;100270.0;;;-11.5;90.9
28456;BME280;15682;56.742;38.866;2023-12-14T04:58:41;100270.0;;;-11.5;90.9
28456;BME280;15682;56.742;38.866;2023-12-14T05:00:41;100270.0;;;-11.5;90.7
28456;BME280;15682;56.742;38.866;2023-12-14T05:02:41;100270.0;;;-11.5;91.2
28456;BME280;15682;56.742;38.866;2023-12-14T05:04:40;100270.0;;;-11.5;91.2
28456;BME280;15682;56.742;38.866;2023-12-14T05:06:41;100270.0;;;-11.5;91.4
28456;BME280;15682;56.742;38.866;2023-12-14T05:08:40;100270.0;;;-11.5;91.4
28456;BME280;15682;56.742;38.866;2023-12-14T05:10:39;100270.0;;;-11.4;91.4
28456;BME280;15682;56.742;38.866;2023-12-14T05:12:39;100270.0;;;-11.4;91.4
28456;BME280;15682;56.742;38.866;2023-12-14T05:14:39;100270.0;;;-11.5;90.7
28456;BME280;15682;56.742;38.866;2023-12-14T05:16:38;100270.0;;;-11.5;90.8
28456;BME280;15682;56.742;38.866;2023-12-14T05:18:38;100270.0;;;-11.5;90.8
28456;BME280;15682;56.742;38.866;2023-12-14T05:20:38;100270.0;;;-11.5;90.8
28456;BME280;15682;56.742;38.866;2023-12-14T05:22:37;100270.0;;;-11.5;91.3
28456;BME280;15682;56.742;38.866;2023-12-14T05:24:37;100270.0;;;-11.5;91.3
28456;BME280;15682;56.742;38.866;2023-12-14T05:26:37;100270.0;;;-11.5;91.3
28456;BME280;15682;56.742;38.866;2023-12-14T05:28:36;100270.0;;;-11.5;90.6
28456;BME280;15682;56.742;38.866;2023-12-14T05:30:36;100270.0;;;-11.5;91.2
28456;BME280;15682;56.742;38.866;2023-12-14T05:32:36;100270.0;;;-11.4;91.2
28456;BME280;15682;56.742;38.866;2023-12-14T05:34:35;100270.0;;;-11.5;90.6
28456;BME280;15682;56.742;38.866;2023-12-14T05:36:35;100270.0;;;-11.5;90.6
28456;BME280;15682;56.742;38.866;2023-12-14T05:38:35;100270.0;;;-11.5;90.6
28456;BME280;15682;56.742;38.866;2023-12-14T05:40:34;100270.0;;;-11.4;91.3
28456;BME280;15682;56.742;38.866;2023-12-14T05:42:34;100270.0;;;-11.4;91.3
28456;BME280;15682;56.742;38.866;2023-12-14T05:44:34;100270.0;;;-11.4;91.3
28456;BME280;15682;56.742;38.866;2023-12-14T05:46:33;100270.0;;;-11.4;91.3
28456;BME280;15682;56.742;38.866;2023-12-14T05:48:33;100270.0;;;-11.4;90.7
28456;BME280;15682;56.742;38.866;2023-12-14T05:50:33;100270.0;;;-11.4;90.1
28456;BME280;15682;56.742;38.866;2023-12-14T05:52:32;100270.0;;;-11.4;90.7
28456;BME280;15682;56.742;38.866;2023-12-14T05:54:32;100270.0;;;-11.4;90.7
28456;BME280;15682;56.742;38.866;2023-12-14T05:56:32;100270.0;;;-11.4;90.7
28456;BME280;15682;56.742;38.866;2023-12-14T05:58:31;100270.0;;;-11.4;90.5
28456;BME280;15682;56.742;38.866;2023-12-14T06:00:31;100270.0;;;-11.4;90.1
28456;BME280;15682;56.742;38.866;2023-12-14T06:02:31;100270.0;;;-11.4;90.1
28456;BME280;15682;56.742;38.866;2023-12-14T06:04:31;100270.0;;;-11.4;90.1
28456;BME280;15682;56.742;38.866;2023-12-14T06:06:30;100270.0;;;-11.4;90.1
28456;BME280;15682;56.742;38.866;2023-12-14T06:08:30;100270.0;;;-11.4;90.7
28456;BME280;15682;56.742;38.866;2023-12-14T06:10:29;100270.0;;;-11.4;90.7
28456;BME280;15682;56.742;38.866;2023-12-14T06:12:29;100270.0;;;-11.4;90.7
28456;BME280;15682;56.742;38.866;2023-12-14T06:14:29;100270.0;;;-11.4;90.7
28456;BME280;15682;56.742;38.866;2023-12-14T06:16:28;100270.0;;;-11.4;90.7
28456;BME280;15682;56.742;38.866;2023-12-14T06:18:28;100280.0;;;-11.4;89.9
28456;BME280;15682;56.742;38.866;2023-12-14T06:20:28;100280.0;;;-11.4;89.9
28456;BME280;15682;56.742;38.866;2023-12-14T06:22:27;100280.0;;;-11.4;90.5
28456;BME280;15682;56.742;38.866;2023-12-14T06:24:27;100280.0;;;-11.4;90.5
28456;BME280;15682;56.742;38.866;2023-12-14T06:26:27;100280.0;;;-11.2;90.5
28456;BME280;15682;56.742;38.866;2023-12-14T06:28:26;100280.0;;;-11.4;90.2
28456;BME280;15682;56.742;38.866;2023-12-14T06:30:26;100280.0;;;-11.4;90.2
28456;BME280;15682;56.742;38.866;2023-12-14T06:32:26;100280.0;;;-11.2;90.3
28456;BME280;15682;56.742;38.866;2023-12-14T06:34:26;100280.0;;;-11.3;90.3
28456;BME280;15682;56.742;38.866;2023-12-14T06:36:25;100280.0;;;-11.3;89.7
28456;BME280;15682;56.742;38.866;2023-12-14T06:38:25;100280.0;;;-11.3;90.1
28456;BME280;15682;56.742;38.866;2023-12-14T06:40:25;100280.0;;;-11.3;90.1
28456;BME280;15682;56.742;38.866;2023-12-14T06:42:27;100280.0;;;-11.3;90.1
28456;BME280;15682;56.742;38.866;2023-12-14T06:44:24;100280.0;;;-11.2;90.1
28456;BME280;15682;56.742;38.866;2023-12-14T06:46:24;100280.0;;;-11.2;90.3
28456;BME280;15682;56.742;38.866;2023-12-14T06:48:24;100280.0;;;-11.2;89.6
28456;BME280;15682;56.742;38.866;2023-12-14T06:50:23;100280.0;;;-11.2;89.6
28456;BME280;15682;56.742;38.866;2023-12-14T06:52:23;100280.0;;;-11.1;89.6
28456;BME280;15682;56.742;38.866;2023-12-14T06:54:22;100280.0;;;-11.2;89.6
28456;BME280;15682;56.742;38.866;2023-12-14T06:56:22;100280.0;;;-11.2;89.6
28456;BME280;15682;56.742;38.866;2023-12-14T06:58:22;100280.0;;;-11.2;89.7
28456;BME280;15682;56.742;38.866;2023-12-14T07:00:21;100280.0;;;-11.2;89.7
28456;BME280;15682;56.742;38.866;2023-12-14T07:02:21;100280.0;;;-11.2;89.7
28456;BME280;15682;56.742;38.866;2023-12-14T07:04:21;100280.0;;;-10.9;91.3
28456;BME280;15682;56.742;38.866;2023-12-14T07:06:21;100290.0;;;-11.1;90.2
28456;BME280;15682;56.742;38.866;2023-12-14T07:08:20;100290.0;;;-11.2;89.6
28456;BME280;15682;56.742;38.866;2023-12-14T07:10:20;100300.0;;;-11.2;90.3
28456;BME280;15682;56.742;38.866;2023-12-14T07:12:19;100300.0;;;-11.0;90.3
28456;BME280;15682;56.742;38.866;2023-12-14T07:14:19;100300.0;;;-11.0;90.3
28456;BME280;15682;56.742;38.866;2023-12-14T07:16:19;100300.0;;;-11.0;89.7
28456;BME280;15682;56.742;38.866;2023-12-14T07:18:18;100300.0;;;-11.0;89.7
28456;BME280;15682;56.742;38.866;2023-12-14T07:20:18;100300.0;;;-11.0;89.7
28456;BME280;15682;56.742;38.866;2023-12-14T07:22:18;100300.0;;;-11.0;90.3
28456;BME280;15682;56.742;38.866;2023-12-14T07:24:17;100300.0;;;-11.1;89.6
28456;BME280;15682;56.742;38.866;2023-12-14T07:26:17;100300.0;;;-11.1;90.3
28456;BME280;15682;56.742;38.866;2023-12-14T07:28:17;100300.0;;;-11.1;89.7
28456;BME280;15682;56.742;38.866;2023-12-14T07:30:17;100300.0;;;-11.1;89.7
28456;BME280;15682;56.742;38.866;2023-12-14T07:32:16;100300.0;;;-11.1;89.7
28456;BME280;15682;56.742;38.866;2023-12-14T07:34:16;100300.0;;;-11.1;89.7
28456;BME280;15682;56.742;38.866;2023-12-14T07:36:16;100300.0;;;-10.9;89.7
28456;BME280;15682;56.742;38.866;2023-12-14T07:38:15;100300.0;;;-10.9;89.8
28456;BME280;15682;56.742;38.866;2023-12-14T07:40:15;100300.0;;;-10.9;89.8
28456;BME280;15682;56.742;38.866;2023-12-14T07:42:15;100300.0;;;-10.9;89.8
28456;BME280;15682;56.742;38.866;2023-12-14T07:44:14;100300.0;;;-10.7;89.8
28456;BME280;15682;56.742;38.866;2023-12-14T07:46:14;100300.0;;;-10.9;88.9
28456;BME280;15682;56.742;38.866;2023-12-14T07:48:14;100300.0;;;-10.9;89.5
28456;BME280;15682;56.742;38.866;2023-12-14T07:50:14;100300.0;;;-10.9;89.5
28456;BME280;15682;56.742;38.866;2023-12-14T07:52:13;100300.0;;;-10.9;89.5
28456;BME280;15682;56.742;38.866;2023-12-14T07:54:13;100300.0;;;-10.8;89.5
28456;BME280;15682;56.742;38.866;2023-12-14T07:56:13;100300.0;;;-10.8;89.5
28456;BME280;15682;56.742;38.866;2023-12-14T07:58:12;100300.0;;;-10.8;89.1
28456;BME280;15682;56.742;38.866;2023-12-14T08:00:13;100300.0;;;-10.7;89.1
28456;BME280;15682;56.742;38.866;2023-12-14T08:02:12;100300.0;;;-10.7;89.1
28456;BME280;15682;56.742;38.866;2023-12-14T08:04:11;100300.0;;;-10.7;89.1
28456;BME280;15682;56.742;38.866;2023-12-14T08:06:11;100300.0;;;-10.7;88.7
28456;BME280;15682;56.742;38.866;2023-12-14T08:08:11;100300.0;;;-10.7;89.3
28456;BME280;15682;56.742;38.866;2023-12-14T08:10:10;100300.0;;;-10.6;89.3
28456;BME280;15682;56.742;38.866;2023-12-14T08:12:10;100300.0;;;-10.7;89.3
28456;BME280;15682;56.742;38.866;2023-12-14T08:14:10;100300.0;;;-10.8;88.6
28456;BME280;15682;56.742;38.866;2023-12-14T08:16:09;100300.0;;;-10.8;89.7
28456;BME280;15682;56.742;38.866;2023-12-14T08:18:09;100300.0;;;-10.7;89.7
28456;BME280;15682;56.742;38.866;2023-12-14T08:20:09;100300.0;;;-10.7;89.0
28456;BME280;15682;56.742;38.866;2023-12-14T08:22:09;100300.0;;;-10.7;89.0
28456;BME280;15682;56.742;38.866;2023-12-14T08:24:08;100300.0;;;-10.5;89.0
28456;BME280;15682;56.742;38.866;2023-12-14T08:26:08;100300.0;;;-10.7;89.0
28456;BME280;15682;56.742;38.866;2023-12-14T08:28:08;100300.0;;;-10.7;88.9
28456;BME280;15682;56.742;38.866;2023-12-14T08:30:08;100300.0;;;-10.7;88.9
28456;BME280;15682;56.742;38.866;2023-12-14T08:32:07;100300.0;;;-10.7;88.9
28456;BME280;15682;56.742;38.866;2023-12-14T08:34:07;100310.0;;;-10.7;88.9
28456;BME280;15682;56.742;38.866;2023-12-14T08:36:07;100310.0;;;-10.7;88.9
28456;BME280;15682;56.742;38.866;2023-12-14T08:38:06;100310.0;;;-10.7;88.9
28456;BME280;15682;56.742;38.866;2023-12-14T08:40:07;100310.0;;;-10.7;88.9
28456;BME280;15682;56.742;38.866;2023-12-14T08:42:06;100310.0;;;-10.7;88.9
28456;BME280;15682;56.742;38.866;2023-12-14T08:44:05;100310.0;;;-10.6;88.9
28456;BME280;15682;56.742;38.866;2023-12-14T08:46:05;100310.0;;;-10.5;88.9
28456;BME280;15682;56.742;38.866;2023-12-14T08:48:05;100310.0;;;-10.6;88.8
28456;BME280;15682;56.742;38.866;2023-12-14T08:50:05;100310.0;;;-10.4;89.7
28456;BME280;15682;56.742;38.866;2023-12-14T08:52:04;100310.0;;;-10.6;88.8
28456;BME280;15682;56.742;38.866;2023-12-14T08:54:04;100310.0;;;-10.5;88.8
28456;BME280;15682;56.742;38.866;2023-12-14T08:56:04;100310.0;;;-10.5;88.8
28456;BME280;15682;56.742;38.866;2023-12-14T08:58:03;100310.0;;;-10.5;88.8
28456;BME280;15682;56.742;38.866;2023-12-14T09:00:04;100310.0;;;-10.4;88.8
28456;BME280;15682;56.742;38.866;2023-12-14T09:02:03;100310.0;;;-10.5;88.8
28456;BME280;15682;56.742;38.866;2023-12-14T09:04:02;100310.0;;;-10.6;88.8
28456;BME280;15682;56.742;38.866;2023-12-14T09:06:02;100310.0;;;-10.7;88.8
28456;BME280;15682;56.742;38.866;2023-12-14T09:08:02;100310.0;;;-10.6;89.0
28456;BME280;15682;56.742;38.866;2023-12-14T09:10:01;100310.0;;;-10.6;89.0
28456;BME280;15682;56.742;38.866;2023-12-14T09:12:01;100320.0;;;-10.4;89.0
28456;BME280;15682;56.742;38.866;2023-12-14T09:14:01;100320.0;;;-10.5;89.0
28456;BME280;15682;56.742;38.866;2023-12-14T09:16:00;100320.0;;;-10.5;89.0
28456;BME280;15682;56.742;38.866;2023-12-14T09:18:00;100320.0;;;-10.5;88.8
28456;BME280;15682;56.742;38.866;2023-12-14T09:20:00;100320.0;;;-10.3;88.8
28456;BME280;15682;56.742;38.866;2023-12-14T09:22:00;100320.0;;;-10.3;88.8
28456;BME280;15682;56.742;38.866;2023-12-14T09:23:59;100320.0;;;-10.3;88.8
28456;BME280;15682;56.742;38.866;2023-12-14T09:25:59;100320.0;;;-10.3;88.8
28456;BME280;15682;56.742;38.866;2023-12-14T09:27:59;100320.0;;;-10.4;88.5
28456;BME280;15682;56.742;38.866;2023-12-14T09:29:58;100320.0;;;-10.3;88.5
28456;BME280;15682;56.742;38.866;2023-12-14T09:31:58;100320.0;;;-10.3;88.5
28456;BME280;15682;56.742;38.866;2023-12-14T09:33:58;100320.0;;;-10.2;88.5
28456;BME280;15682;56.742;38.866;2023-12-14T09:35:57;100320.0;;;-10.4;88.2
28456;BME280;15682;56.742;38.866;2023-12-14T09:37:57;100320.0;;;-10.2;88.4
28456;BME280;15682;56.742;38.866;2023-12-14T09:39:57;100320.0;;;-10.2;88.4
28456;BME280;15682;56.742;38.866;2023-12-14T09:42:02;100320.0;;;-10.2;88.4
28456;BME280;15682;56.742;38.866;2023-12-14T09:43:56;100320.0;;;-10.2;88.4
28456;BME280;15682;56.742;38.866;2023-12-14T09:45:56;100320.0;;;-10.1;88.1
28456;BME280;15682;56.742;38.866;2023-12-14T09:47:57;100320.0;;;-10.1;88.4
28456;BME280;15682;56.742;38.866;2023-12-14T09:49:55;100320.0;;;-10.2;88.4
28456;BME280;15682;56.742;38.866;2023-12-14T09:51:55;100320.0;;;-10.1;88.7
28456;BME280;15682;56.742;38.866;2023-12-14T09:53:55;100320.0;;;-10.0;88.7
28456;BME280;15682;56.742;38.866;2023-12-14T09:55:54;100320.0;;;-10.0;87.8
28456;BME280;15682;56.742;38.866;2023-12-14T09:57:54;100320.0;;;-10.0;87.8
28456;BME280;15682;56.742;38.866;2023-12-14T09:59:55;100320.0;;;-10.0;87.8
28456;BME280;15682;56.742;38.866;2023-12-14T10:02:09;100320.0;;;-9.9;88.4
28456;BME280;15682;56.742;38.866;2023-12-14T10:04:07;100320.0;;;-10.1;87.9
28456;BME280;15682;56.742;38.866;2023-12-14T10:05:54;100320.0;;;-10.1;87.0
28456;BME280;15682;56.742;38.866;2023-12-14T10:07:53;100320.0;;;-10.1;88.7
28456;BME280;15682;56.742;38.866;2023-12-14T10:09:52;100320.0;;;-10.1;88.7
28456;BME280;15682;56.742;38.866;2023-12-14T10:12:02;100320.0;;;-10.2;88.7
28456;BME280;15682;56.742;38.866;2023-12-14T10:13:52;100320.0;;;-10.1;88.7
28456;BME280;15682;56.742;38.866;2023-12-14T10:15:52;100320.0;;;-10.1;88.7
28456;BME280;15682;56.742;38.866;2023-12-14T10:17:52;100320.0;;;-10.0;88.6
28456;BME280;15682;56.742;38.866;2023-12-14T10:19:51;100310.0;;;-10.0;88.6
28456;BME280;15682;56.742;38.866;2023-12-14T10:21:51;100310.0;;;-10.0;88.6
28456;BME280;15682;56.742;38.866;2023-12-14T10:23:50;100310.0;;;-10.1;88.6
28456;BME280;15682;56.742;38.866;2023-12-14T10:25:52;100310.0;;;-10.1;88.6
28456;BME280;15682;56.742;38.866;2023-12-14T10:27:51;100310.0;;;-10.2;88.6
28456;BME280;15682;56.742;38.866;2023-12-14T10:29:50;100310.0;;;-10.2;88.6
28456;BME280;15682;56.742;38.866;2023-12-14T10:31:49;100310.0;;;-10.0;88.6
28456;BME280;15682;56.742;38.866;2023-12-14T10:33:49;100310.0;;;-9.9;88.6